createdAt,value
2019-03-02T00:02:00.016Z,90.36
2019-03-02T00:04:32.612Z,90.69
2019-03-02T00:07:07.990Z,90.97
2019-03-02T00:09:43.857Z,91.15
2019-03-02T00:12:17.175Z,91.38
2019-03-02T00:14:54.134Z,91.58
2019-03-02T00:17:27.807Z,91.73
2019-03-02T00:20:01.651Z,91.88
2019-03-02T00:22:39.437Z,92.15
2019-03-02T00:25:17.288Z,92.35
2019-03-02T00:27:54.102Z,92.61
2019-03-02T00:30:30.953Z,92.80
2019-03-02T00:33:03.540Z,93.01
2019-03-02T00:35:39.797Z,93.14
2019-03-02T00:38:16.249Z,93.35
2019-03-02T00:40:49.055Z,93.54
2019-03-02T00:43:23.697Z,93.78
2019-03-02T00:46:00.168Z,94.03
2019-03-02T00:48:33.878Z,94.18
2019-03-02T00:51:07.872Z,94.43
2019-03-02T00:53:45.506Z,94.60
2019-03-02T00:56:18.401Z,94.72
2019-03-02T00:58:53.695Z,94.90
2019-03-02T01:01:28.737Z,95.16
2019-03-02T01:04:03.841Z,95.19
2019-03-02T01:06:37.328Z,95.37
2019-03-02T01:09:11.662Z,95.61
2019-03-02T01:11:48.766Z,95.81
2019-03-02T01:14:23.085Z,96.12
2019-03-02T01:16:55.930Z,96.20
2019-03-02T01:19:29.171Z,96.34
2019-03-02T01:22:03.191Z,96.46
2019-03-02T01:24:38.778Z,96.69
2019-03-02T01:27:12.414Z,96.93
2019-03-02T01:29:45.614Z,97.21
2019-03-02T01:32:18.162Z,97.60
2019-03-02T01:34:50.707Z,97.94
2019-03-02T01:37:27.106Z,98.17
2019-03-02T01:40:00.912Z,98.55
2019-03-02T01:42:37.339Z,98.91
2019-03-02T01:45:17.085Z,99.20
2019-03-02T01:47:51.216Z,99.52
2019-03-02T01:50:24.790Z,99.85
2019-03-02T01:52:59.054Z,100.00
2019-03-02T01:55:32.131Z,100.00
2019-03-02T01:58:05.287Z,100.00
2019-03-02T02:00:38.790Z,100.00
2019-03-02T02:03:12.047Z,100.00
2019-03-02T02:05:45.499Z,100.00
2019-03-02T02:08:18.950Z,100.00
2019-03-02T02:10:52.333Z,100.00
2019-03-02T02:13:24.861Z,100.00
2019-03-02T02:15:57.906Z,100.00
2019-03-02T02:18:30.371Z,100.00
2019-03-02T02:21:03.785Z,100.00
2019-03-02T02:23:38.772Z,100.00
2019-03-02T02:26:12.549Z,100.00
2019-03-02T02:28:45.080Z,100.00
2019-03-02T02:31:17.817Z,100.00
2019-03-02T02:33:51.440Z,100.00
2019-03-02T02:36:24.098Z,100.00
2019-03-02T02:38:57.847Z,100.00
2019-03-02T02:41:30.488Z,100.00
2019-03-02T02:44:02.959Z,100.00
2019-03-02T02:46:37.058Z,100.00
2019-03-02T02:49:11.641Z,100.00
2019-03-02T02:51:49.378Z,100.00
2019-03-02T02:54:24.613Z,100.00
2019-03-02T02:56:58.675Z,100.00
2019-03-02T02:59:33.954Z,100.00
2019-03-02T03:02:11.985Z,100.00
2019-03-02T03:04:45.245Z,100.00
2019-03-02T03:07:17.771Z,100.00
2019-03-02T03:09:58.144Z,100.00
2019-03-02T03:12:30.913Z,100.00
2019-03-02T03:15:05.469Z,100.00
2019-03-02T03:17:38.159Z,100.00
2019-03-02T03:20:11.976Z,100.00
2019-03-02T03:22:46.103Z,100.00
2019-03-02T03:25:22.310Z,100.00
2019-03-02T03:27:54.901Z,100.00
2019-03-02T03:30:35.270Z,100.00
2019-03-02T03:33:11.141Z,100.00
2019-03-02T03:35:44.553Z,100.00
2019-03-02T03:38:18.050Z,100.00
2019-03-02T03:40:51.137Z,100.00
2019-03-02T03:43:24.836Z,100.00
2019-03-02T03:45:57.371Z,100.00
2019-03-02T03:48:30.047Z,100.00
2019-03-02T03:51:03.940Z,100.00
2019-03-02T03:53:36.645Z,100.00
2019-03-02T03:56:10.016Z,100.00
2019-03-02T03:58:42.828Z,100.00
2019-03-02T04:01:17.769Z,100.00
2019-03-02T04:03:53.032Z,100.00
2019-03-02T04:06:28.008Z,100.00
2019-03-02T04:09:03.167Z,100.00
2019-03-02T04:11:42.112Z,100.00
2019-03-02T04:14:19.113Z,100.00
2019-03-02T04:17:00.124Z,100.00
2019-03-02T04:19:35.983Z,100.00
2019-03-02T04:22:12.085Z,100.00
2019-03-02T04:24:44.665Z,100.00
2019-03-02T04:27:18.349Z,100.00
2019-03-02T04:29:55.281Z,100.00
2019-03-02T04:32:29.062Z,100.00
2019-03-02T04:35:01.905Z,100.00
2019-03-02T04:37:35.607Z,100.00
2019-03-02T04:40:08.973Z,100.00
2019-03-02T04:42:41.514Z,100.00
2019-03-02T04:45:16.130Z,100.00
2019-03-02T04:47:48.674Z,100.00
2019-03-02T04:50:23.508Z,100.00
2019-03-02T04:53:00.492Z,100.00
2019-03-02T04:55:32.900Z,100.00
2019-03-02T04:58:08.669Z,100.00
2019-03-02T05:00:44.535Z,100.00
2019-03-02T05:03:18.506Z,100.00
2019-03-02T05:05:51.062Z,100.00
2019-03-02T05:08:24.701Z,100.00
2019-03-02T05:11:00.734Z,100.00
2019-03-02T05:13:36.511Z,100.00
2019-03-02T05:16:09.409Z,100.00
2019-03-02T05:18:42.244Z,100.00
2019-03-02T05:21:14.977Z,100.00
2019-03-02T05:23:47.433Z,100.00
2019-03-02T05:26:23.639Z,100.00
2019-03-02T05:28:57.557Z,100.00
2019-03-02T05:31:31.808Z,100.00
2019-03-02T05:34:05.950Z,100.00
2019-03-02T05:36:38.782Z,100.00
2019-03-02T05:39:13.905Z,100.00
2019-03-02T05:41:50.276Z,100.00
2019-03-02T05:44:23.025Z,100.00
2019-03-02T05:46:57.699Z,100.00
2019-03-02T05:49:34.439Z,100.00
2019-03-02T05:52:07.040Z,100.00
2019-03-02T05:54:41.591Z,100.00
2019-03-02T05:57:15.130Z,100.00
2019-03-02T05:59:47.785Z,100.00
2019-03-02T06:02:20.360Z,100.00
2019-03-02T06:04:53.720Z,100.00
2019-03-02T06:07:29.571Z,100.00
2019-03-02T06:10:02.238Z,100.00
2019-03-02T06:12:35.127Z,100.00
2019-03-02T06:15:08.725Z,100.00
2019-03-02T06:17:43.638Z,100.00
2019-03-02T06:20:16.390Z,100.00
2019-03-02T06:22:52.395Z,100.00
2019-03-02T06:25:27.931Z,100.00
2019-03-02T06:28:00.910Z,100.00
2019-03-02T06:30:33.402Z,100.00
2019-03-02T06:33:08.470Z,100.00
2019-03-02T06:35:42.314Z,100.00
2019-03-02T06:38:14.823Z,100.00
2019-03-02T06:40:47.382Z,100.00
2019-03-02T06:43:22.823Z,100.00
2019-03-02T06:45:55.770Z,100.00
2019-03-02T06:48:28.242Z,100.00
2019-03-02T06:51:02.339Z,100.00
2019-03-02T06:53:37.076Z,100.00
2019-03-02T06:56:11.693Z,100.00
2019-03-02T06:58:45.130Z,100.00
2019-03-02T07:01:20.882Z,100.00
2019-03-02T07:03:57.766Z,100.00
2019-03-02T07:06:30.593Z,100.00
2019-03-02T07:09:05.941Z,100.00
2019-03-02T07:11:43.032Z,100.00
2019-03-02T07:14:16.269Z,100.00
2019-03-02T07:16:52.109Z,100.00
2019-03-02T07:19:37.288Z,100.00
2019-03-02T07:22:13.517Z,100.00
2019-03-02T07:24:49.509Z,100.00
2019-03-02T07:27:26.354Z,100.00
2019-03-02T07:30:08.014Z,100.00
2019-03-02T07:32:41.460Z,100.00
2019-03-02T07:35:19.471Z,100.00
2019-03-02T07:37:53.576Z,100.00
2019-03-02T07:40:26.383Z,100.00
2019-03-02T07:42:59.965Z,100.00
2019-03-02T07:45:34.838Z,100.00
2019-03-02T07:48:09.233Z,100.00
2019-03-02T07:50:42.238Z,100.00
2019-03-02T07:53:14.713Z,100.00
2019-03-02T07:55:47.441Z,100.00
2019-03-02T07:58:20.871Z,100.00
2019-03-02T08:00:53.516Z,100.00
2019-03-02T08:03:26.080Z,100.00
2019-03-02T08:06:01.268Z,100.00
2019-03-02T08:08:34.538Z,100.00
2019-03-02T08:11:10.524Z,100.00
2019-03-02T08:13:46.037Z,100.00
2019-03-02T08:16:18.646Z,100.00
2019-03-02T08:18:51.663Z,100.00
2019-03-02T08:21:26.039Z,100.00
2019-03-02T08:23:58.634Z,100.00
2019-03-02T08:26:34.611Z,100.00
2019-03-02T08:29:07.243Z,100.00
2019-03-02T08:31:41.884Z,100.00
2019-03-02T08:34:20.046Z,100.00
2019-03-02T08:36:54.259Z,100.00
2019-03-02T08:39:28.001Z,100.00
2019-03-02T08:42:01.571Z,100.00
2019-03-02T08:44:36.207Z,100.00
2019-03-02T08:47:09.886Z,100.00
2019-03-02T08:49:53.267Z,100.00
2019-03-02T08:52:28.985Z,100.00
2019-03-02T08:55:02.518Z,100.00
2019-03-02T08:57:36.149Z,100.00
2019-03-02T09:00:17.459Z,100.00
2019-03-02T09:02:50.548Z,100.00
2019-03-02T09:05:42.985Z,100.00
2019-03-02T09:08:19.408Z,100.00
2019-03-02T09:10:52.460Z,100.00
2019-03-02T09:13:25.216Z,100.00
2019-03-02T09:16:01.335Z,100.00
2019-03-02T09:18:45.381Z,100.00
2019-03-02T09:21:19.996Z,100.00
2019-03-02T09:23:55.371Z,100.00
2019-03-02T09:26:29.923Z,100.00
2019-03-02T09:29:02.720Z,100.00
2019-03-02T09:31:39.818Z,100.00
2019-03-02T09:34:12.480Z,100.00
2019-03-02T09:36:45.028Z,100.00
2019-03-02T09:39:20.679Z,100.00
2019-03-02T09:41:53.441Z,100.00
2019-03-02T09:44:26.480Z,100.00
2019-03-02T09:46:59.018Z,100.00
2019-03-02T09:49:33.862Z,100.00
2019-03-02T09:52:10.114Z,100.00
2019-03-02T09:54:44.059Z,100.00
2019-03-02T09:57:16.778Z,100.00
2019-03-02T09:59:52.572Z,99.93
2019-03-02T10:02:26.599Z,98.78
2019-03-02T10:05:26.182Z,96.72
2019-03-02T10:07:59.647Z,93.82
2019-03-02T10:10:33.428Z,94.48
2019-03-02T10:13:08.274Z,94.52
2019-03-02T10:15:42.287Z,94.59
2019-03-02T10:18:17.262Z,93.28
2019-03-02T10:20:52.641Z,93.32
2019-03-02T10:23:26.599Z,93.56
2019-03-02T10:26:00.058Z,92.33
2019-03-02T10:28:35.072Z,92.37
2019-03-02T10:31:10.262Z,92.46
2019-03-02T10:33:44.352Z,92.43
2019-03-02T10:36:18.478Z,91.93
2019-03-02T10:41:16.686Z,89.92
2019-03-02T10:43:53.232Z,89.36
2019-03-02T10:46:27.028Z,88.83
2019-03-02T10:49:00.514Z,88.95
2019-03-02T10:51:37.595Z,88.03
2019-03-02T10:54:13.104Z,87.61
2019-03-02T10:56:46.007Z,87.64
2019-03-02T10:59:18.589Z,86.59
2019-03-02T11:01:51.125Z,86.89
2019-03-02T11:04:44.359Z,85.83
2019-03-02T11:07:44.832Z,85.70
2019-03-02T11:10:42.410Z,85.66
2019-03-02T11:13:34.650Z,84.56
2019-03-02T11:16:32.092Z,84.08
2019-03-02T11:19:14.610Z,83.42
2019-03-02T11:22:10.863Z,83.47
2019-03-02T11:24:59.623Z,81.39
2019-03-02T11:27:45.793Z,80.80
2019-03-02T11:30:45.687Z,80.01
2019-03-02T11:33:37.149Z,80.26
2019-03-02T11:36:15.182Z,79.19
2019-03-02T11:39:01.024Z,78.83
2019-03-02T11:41:54.502Z,75.68
2019-03-02T11:44:36.898Z,74.73
2019-03-02T11:47:19.312Z,73.75
2019-03-02T11:50:04.820Z,73.23
2019-03-02T11:52:50.372Z,72.35
2019-03-02T11:55:35.195Z,72.05
2019-03-02T11:58:20.077Z,69.90
2019-03-02T12:01:04.800Z,71.52
2019-03-02T12:03:59.465Z,71.55
2019-03-02T12:06:57.499Z,69.65
2019-03-02T12:09:49.517Z,69.71
2019-03-02T12:12:39.243Z,69.17
2019-03-02T12:15:21.419Z,69.12
2019-03-02T12:17:59.524Z,69.24
2019-03-02T12:20:51.526Z,68.94
2019-03-02T12:23:29.722Z,69.52
2019-03-02T12:26:16.782Z,69.51
2019-03-02T12:29:13.494Z,69.65
2019-03-02T12:32:07.585Z,69.40
2019-03-02T12:34:51.467Z,69.05
2019-03-02T12:37:41.990Z,67.88
2019-03-02T12:40:23.988Z,65.20
2019-03-02T12:43:11.316Z,65.53
2019-03-02T12:45:49.815Z,65.81
2019-03-02T12:48:36.823Z,66.35
2019-03-02T12:51:35.281Z,66.98
2019-03-02T12:54:24.825Z,65.92
2019-03-02T12:57:14.734Z,66.48
2019-03-02T13:00:07.649Z,66.07
2019-03-02T13:03:06.778Z,65.08
2019-03-02T13:05:57.503Z,63.39
2019-03-02T13:08:48.686Z,63.56
2019-03-02T13:11:41.313Z,63.21
2019-03-02T13:14:38.785Z,63.59
2019-03-02T13:17:37.212Z,63.99
2019-03-02T13:20:39.365Z,63.65
2019-03-02T13:23:22.084Z,64.66
2019-03-02T13:26:07.442Z,64.92
2019-03-02T13:29:04.878Z,65.42
2019-03-02T13:32:01.430Z,65.05
2019-03-02T13:34:39.808Z,63.97
2019-03-02T13:37:34.359Z,64.23
2019-03-02T13:40:33.444Z,64.48
2019-03-02T13:43:12.573Z,65.25
2019-03-02T13:46:05.003Z,65.80
2019-03-02T13:48:46.986Z,66.44
2019-03-02T13:51:41.274Z,66.87
2019-03-02T13:54:25.484Z,67.10
2019-03-02T13:57:14.415Z,67.55
2019-03-02T14:00:03.498Z,67.48
2019-03-02T14:02:47.184Z,67.92
2019-03-02T14:05:26.292Z,67.31
2019-03-02T14:08:10.890Z,66.55
2019-03-02T14:10:49.161Z,66.28
2019-03-02T14:13:45.623Z,66.23
2019-03-02T14:16:32.183Z,66.07
2019-03-02T14:19:19.555Z,66.17
2019-03-02T14:22:14.910Z,66.41
2019-03-02T14:25:22.769Z,66.61
2019-03-02T14:28:06.433Z,68.49
2019-03-02T14:30:46.530Z,72.13
2019-03-02T14:33:29.433Z,73.50
2019-03-02T14:36:08.360Z,74.30
2019-03-02T14:39:03.057Z,74.21
2019-03-02T14:41:55.671Z,74.00
2019-03-02T14:44:40.535Z,72.87
2019-03-02T14:47:18.981Z,72.78
2019-03-02T14:50:06.518Z,72.55
2019-03-02T14:52:49.805Z,72.88
2019-03-02T14:55:33.546Z,72.74
2019-03-02T14:58:24.252Z,72.82
2019-03-02T15:01:04.242Z,72.59
2019-03-02T15:04:01.802Z,72.78
2019-03-02T15:06:55.919Z,73.16
2019-03-02T15:09:35.683Z,73.64
2019-03-02T15:12:16.089Z,74.18
2019-03-02T15:15:05.450Z,74.72
2019-03-02T15:17:49.248Z,73.85
2019-03-02T15:20:38.744Z,73.54
2019-03-02T15:23:18.215Z,74.62
2019-03-02T15:26:06.422Z,76.00
2019-03-02T15:29:10.032Z,77.30
2019-03-02T15:32:20.270Z,80.46
2019-03-02T15:35:20.547Z,82.65
2019-03-02T15:38:05.116Z,84.48
2019-03-02T15:40:50.560Z,86.22
2019-03-02T15:43:35.885Z,86.43
2019-03-02T15:46:35.878Z,87.61
2019-03-02T15:49:43.762Z,89.00
2019-03-02T15:52:50.471Z,90.41
2019-03-02T15:55:44.977Z,92.60
2019-03-02T15:58:30.100Z,93.87
2019-03-02T16:01:10.670Z,95.51
2019-03-02T16:03:57.269Z,96.50
2019-03-02T16:06:39.820Z,97.72
2019-03-02T16:09:28.937Z,98.86
2019-03-02T16:12:30.611Z,100.00
2019-03-02T16:15:27.153Z,100.00
2019-03-02T16:18:08.068Z,100.00
2019-03-02T16:20:51.066Z,100.00
2019-03-02T16:23:36.507Z,100.00
2019-03-02T16:26:29.889Z,100.00
2019-03-02T16:29:19.186Z,100.00
2019-03-02T16:32:01.753Z,100.00
2019-03-02T16:34:40.499Z,100.00
2019-03-02T16:37:25.669Z,100.00
2019-03-02T16:40:10.462Z,100.00
2019-03-02T16:42:53.964Z,100.00
2019-03-02T16:45:54.016Z,100.00
2019-03-02T16:48:52.721Z,100.00
2019-03-02T16:51:41.685Z,100.00
2019-03-02T16:54:36.337Z,100.00
2019-03-02T16:57:15.750Z,100.00
2019-03-02T16:59:55.819Z,100.00
2019-03-02T17:02:51.444Z,100.00
2019-03-02T17:05:47.790Z,100.00
2019-03-02T17:08:38.252Z,100.00
2019-03-02T17:11:24.511Z,100.00
2019-03-02T17:14:05.349Z,100.00
2019-03-02T17:16:53.380Z,100.00
2019-03-02T17:19:36.697Z,100.00
2019-03-02T17:22:15.981Z,100.00
2019-03-02T17:25:11.698Z,100.00
2019-03-02T17:27:59.756Z,100.00
2019-03-02T17:30:49.232Z,100.00
2019-03-02T17:33:41.267Z,100.00
2019-03-02T17:36:38.314Z,100.00
2019-03-02T17:39:23.649Z,100.00
2019-03-02T17:42:20.382Z,100.00
2019-03-02T17:45:32.001Z,100.00
2019-03-02T17:48:27.792Z,100.00
2019-03-02T17:51:13.954Z,100.00
2019-03-02T17:53:59.795Z,100.00
2019-03-02T17:57:01.647Z,100.00
2019-03-02T17:59:54.308Z,100.00
2019-03-02T18:02:32.743Z,100.00
2019-03-02T18:05:19.745Z,100.00
2019-03-02T18:08:13.469Z,100.00
2019-03-02T18:11:02.700Z,100.00
2019-03-02T18:13:44.974Z,100.00
2019-03-02T18:16:41.368Z,100.00
2019-03-02T18:19:27.887Z,100.00
2019-03-02T18:22:06.471Z,100.00
2019-03-02T18:24:44.065Z,100.00
2019-03-02T18:27:17.490Z,100.00
2019-03-02T18:29:50.801Z,100.00
2019-03-02T18:32:23.641Z,100.00
2019-03-02T18:34:56.871Z,100.00
2019-03-02T18:37:33.813Z,100.00
2019-03-02T18:40:11.048Z,100.00
2019-03-02T18:42:44.139Z,100.00
2019-03-02T18:45:16.220Z,100.00
2019-03-02T18:47:49.554Z,100.00
2019-03-02T18:50:32.485Z,100.00
2019-03-02T18:53:08.267Z,100.00
2019-03-02T18:55:41.001Z,100.00
2019-03-02T18:58:14.171Z,100.00
2019-03-02T19:00:54.079Z,100.00
2019-03-02T19:03:30.711Z,100.00
2019-03-02T19:06:04.232Z,100.00
2019-03-02T19:08:37.932Z,100.00
2019-03-02T19:11:10.809Z,100.00
2019-03-02T19:13:46.626Z,100.00
2019-03-02T19:16:22.002Z,100.00
2019-03-02T19:18:56.848Z,100.00
2019-03-02T19:21:31.013Z,100.00
2019-03-02T19:24:07.727Z,100.00
2019-03-02T19:26:42.855Z,100.00
2019-03-02T19:29:15.769Z,100.00
2019-03-02T19:31:48.540Z,100.00
2019-03-02T19:34:22.545Z,100.00
2019-03-02T19:36:58.140Z,100.00
2019-03-02T19:39:33.630Z,100.00
2019-03-02T19:42:06.327Z,100.00
2019-03-02T19:44:41.640Z,100.00
2019-03-02T19:47:16.979Z,100.00
2019-03-02T19:49:52.863Z,100.00
2019-03-02T19:52:26.538Z,100.00
2019-03-02T19:55:00.401Z,100.00
2019-03-02T19:57:35.561Z,100.00
2019-03-02T20:00:16.627Z,100.00
2019-03-02T20:02:49.606Z,100.00
2019-03-02T20:05:24.344Z,100.00
2019-03-02T20:07:57.112Z,100.00
2019-03-02T20:10:31.854Z,100.00
2019-03-02T20:13:06.612Z,100.00
2019-03-02T20:15:39.546Z,100.00
2019-03-02T20:18:13.237Z,100.00
2019-03-02T20:20:46.625Z,100.00
2019-03-02T20:23:20.183Z,100.00
2019-03-02T20:25:54.778Z,100.00
2019-03-02T20:28:27.791Z,100.00
2019-03-02T20:31:00.483Z,100.00
2019-03-02T20:33:37.152Z,100.00
2019-03-02T20:36:11.288Z,100.00
2019-03-02T20:38:44.736Z,100.00
2019-03-02T20:41:18.108Z,100.00
2019-03-02T20:43:50.770Z,100.00
2019-03-02T20:46:25.551Z,100.00
2019-03-02T20:49:01.548Z,100.00
2019-03-02T20:51:38.413Z,100.00
2019-03-02T20:54:12.570Z,100.00
2019-03-02T20:56:45.765Z,100.00
2019-03-02T20:59:19.228Z,100.00
2019-03-02T21:01:58.391Z,100.00
2019-03-02T21:04:31.050Z,100.00
2019-03-02T21:07:03.944Z,100.00
2019-03-02T21:09:37.619Z,100.00
2019-03-02T21:12:15.654Z,100.00
2019-03-02T21:14:50.404Z,100.00
2019-03-02T21:17:23.512Z,100.00
2019-03-02T21:19:58.726Z,100.00
2019-03-02T21:22:34.760Z,100.00
2019-03-02T21:25:09.216Z,100.00
2019-03-02T21:27:43.190Z,100.00
2019-03-02T21:30:17.356Z,100.00
2019-03-02T21:32:53.666Z,100.00
2019-03-02T21:35:27.917Z,100.00
2019-03-02T21:38:00.582Z,100.00
2019-03-02T21:40:34.480Z,100.00
2019-03-02T21:43:07.742Z,100.00
2019-03-02T21:45:42.388Z,100.00
2019-03-02T21:48:15.579Z,100.00
2019-03-02T21:50:48.469Z,100.00
2019-03-02T21:53:23.250Z,100.00
2019-03-02T21:55:56.339Z,100.00
2019-03-02T21:58:29.565Z,100.00
2019-03-02T22:01:04.860Z,100.00
2019-03-02T22:03:41.380Z,100.00
2019-03-02T22:06:16.254Z,100.00
2019-03-02T22:08:52.838Z,100.00
2019-03-02T22:11:31.744Z,100.00
2019-03-02T22:14:04.702Z,100.00
2019-03-02T22:16:42.490Z,100.00
2019-03-02T22:19:17.827Z,100.00
2019-03-02T22:21:50.618Z,100.00
2019-03-02T22:24:27.922Z,100.00
2019-03-02T22:27:01.075Z,100.00
2019-03-02T22:29:36.567Z,100.00
2019-03-02T22:32:11.941Z,100.00
2019-03-02T22:34:47.011Z,100.00
2019-03-02T22:37:20.364Z,100.00
2019-03-02T22:39:55.028Z,100.00
2019-03-02T22:42:28.618Z,100.00
2019-03-02T22:45:04.653Z,100.00
2019-03-02T22:47:40.375Z,100.00
2019-03-02T22:50:19.200Z,100.00
2019-03-02T22:52:51.878Z,100.00
2019-03-02T22:55:24.458Z,100.00
2019-03-02T22:57:59.187Z,100.00
2019-03-02T23:01:46.835Z,100.00
2019-03-02T23:04:27.748Z,98.98
2019-03-02T23:07:00.375Z,98.29
2019-03-02T23:09:32.915Z,97.17
2019-03-02T23:12:06.863Z,96.50
2019-03-02T23:14:41.791Z,95.98
2019-03-02T23:17:15.508Z,95.01
2019-03-02T23:19:49.068Z,94.92
2019-03-02T23:22:25.426Z,94.03
2019-03-02T23:24:57.962Z,93.77
2019-03-02T23:27:32.035Z,93.96
2019-03-02T23:30:09.732Z,93.57
2019-03-02T23:32:44.747Z,93.34
2019-03-02T23:35:17.595Z,92.86
2019-03-02T23:37:50.122Z,92.90
2019-03-02T23:40:25.215Z,93.08
2019-03-02T23:42:59.794Z,93.27
2019-03-02T23:45:34.835Z,93.40
2019-03-02T23:48:08.468Z,93.64
2019-03-02T23:50:42.398Z,93.79
2019-03-02T23:53:16.558Z,93.70
2019-03-02T23:55:49.374Z,92.96
2019-03-02T23:58:22.114Z,92.54
